sensor_id;sensor_type;location;lat;lon;timestamp;P1;P2;P0
76661;PMS5003;65579;45.534;6.212;2023-01-26T00:00:09;81;79;
76661;PMS5003;65579;45.534;6.212;2023-01-26T00:02:34;84;76;
76661;PMS5003;65579;45.534;6.212;2023-01-26T00:04:59;72;64;
76661;PMS5003;65579;45.534;6.212;2023-01-26T00:07:24;70;58;
76661;PMS5003;65579;45.534;6.212;2023-01-26T00:09:50;77;72;
76661;PMS5003;65579;45.534;6.212;2023-01-26T00:12:15;83;77;
76661;PMS5003;65579;45.534;6.212;2023-01-26T00:14:41;81;77;
76661;PMS5003;65579;45.534;6.212;2023-01-26T00:17:06;92;83;
76661;PMS5003;65579;45.534;6.212;2023-01-26T00:19:32;82;77;
76661;PMS5003;65579;45.534;6.212;2023-01-26T00:21:58;68;67;
76661;PMS5003;65579;45.534;6.212;2023-01-26T00:24:23;70;67;
76661;PMS5003;65579;45.534;6.212;2023-01-26T00:26:49;75;71;
76661;PMS5003;65579;45.534;6.212;2023-01-26T00:29:14;63;62;
76661;PMS5003;65579;45.534;6.212;2023-01-26T00:31:39;94;82;
76661;PMS5003;65579;45.534;6.212;2023-01-26T00:34:05;80;72;
76661;PMS5003;65579;45.534;6.212;2023-01-26T00:36:31;84;79;
76661;PMS5003;65579;45.534;6.212;2023-01-26T00:38:56;73;71;
76661;PMS5003;65579;45.534;6.212;2023-01-26T00:41:22;80;75;
76661;PMS5003;65579;45.534;6.212;2023-01-26T00:43:47;67;63;
76661;PMS5003;65579;45.534;6.212;2023-01-26T00:46:13;87;80;
76661;PMS5003;65579;45.534;6.212;2023-01-26T00:48:38;79;72;
76661;PMS5003;65579;45.534;6.212;2023-01-26T00:51:04;92;84;
76661;PMS5003;65579;45.534;6.212;2023-01-26T00:53:29;84;79;
76661;PMS5003;65579;45.534;6.212;2023-01-26T00:55:54;92;86;
76661;PMS5003;65579;45.534;6.212;2023-01-26T00:58:20;101;94;
76661;PMS5003;65579;45.534;6.212;2023-01-26T01:00:45;88;77;
76661;PMS5003;65579;45.534;6.212;2023-01-26T01:03:10;110;102;
76661;PMS5003;65579;45.534;6.212;2023-01-26T01:05:35;110;101;
76661;PMS5003;65579;45.534;6.212;2023-01-26T01:08:02;92;80;
76661;PMS5003;65579;45.534;6.212;2023-01-26T01:10:27;86;81;
76661;PMS5003;65579;45.534;6.212;2023-01-26T01:12:52;89;76;
76661;PMS5003;65579;45.534;6.212;2023-01-26T01:15:18;92;87;
76661;PMS5003;65579;45.534;6.212;2023-01-26T01:17:43;83;76;
76661;PMS5003;65579;45.534;6.212;2023-01-26T01:20:09;80;73;
76661;PMS5003;65579;45.534;6.212;2023-01-26T01:22:34;76;74;
76661;PMS5003;65579;45.534;6.212;2023-01-26T01:24:59;73;68;
76661;PMS5003;65579;45.534;6.212;2023-01-26T01:27:24;80;73;
76661;PMS5003;65579;45.534;6.212;2023-01-26T01:29:50;79;68;
76661;PMS5003;65579;45.534;6.212;2023-01-26T01:32:15;67;65;
76661;PMS5003;65579;45.534;6.212;2023-01-26T01:34:41;59;56;
76661;PMS5003;65579;45.534;6.212;2023-01-26T01:37:07;61;60;
76661;PMS5003;65579;45.534;6.212;2023-01-26T01:39:32;64;61;
76661;PMS5003;65579;45.534;6.212;2023-01-26T01:41:57;94;87;
76661;PMS5003;65579;45.534;6.212;2023-01-26T01:44:24;94;85;
76661;PMS5003;65579;45.534;6.212;2023-01-26T01:46:50;100;94;
76661;PMS5003;65579;45.534;6.212;2023-01-26T01:49:16;86;79;
76661;PMS5003;65579;45.534;6.212;2023-01-26T01:51:40;84;81;
76661;PMS5003;65579;45.534;6.212;2023-01-26T01:54:06;79;66;
76661;PMS5003;65579;45.534;6.212;2023-01-26T01:56:30;76;70;
76661;PMS5003;65579;45.534;6.212;2023-01-26T01:58:56;82;68;
76661;PMS5003;65579;45.534;6.212;2023-01-26T02:01:21;89;77;
76661;PMS5003;65579;45.534;6.212;2023-01-26T02:03:47;74;71;
76661;PMS5003;65579;45.534;6.212;2023-01-26T02:06:12;70;66;
76661;PMS5003;65579;45.534;6.212;2023-01-26T02:08:38;59;55;
76661;PMS5003;65579;45.534;6.212;2023-01-26T02:11:03;81;76;
76661;PMS5003;65579;45.534;6.212;2023-01-26T02:13:28;85;77;
76661;PMS5003;65579;45.534;6.212;2023-01-26T02:15:53;81;71;
76661;PMS5003;65579;45.534;6.212;2023-01-26T02:18:18;69;64;
76661;PMS5003;65579;45.534;6.212;2023-01-26T02:20:44;93;84;
76661;PMS5003;65579;45.534;6.212;2023-01-26T02:23:13;82;80;
76661;PMS5003;65579;45.534;6.212;2023-01-26T02:25:36;78;74;
76661;PMS5003;65579;45.534;6.212;2023-01-26T02:28:01;92;85;
76661;PMS5003;65579;45.534;6.212;2023-01-26T02:30:26;85;73;
76661;PMS5003;65579;45.534;6.212;2023-01-26T02:32:52;75;68;
76661;PMS5003;65579;45.534;6.212;2023-01-26T02:35:21;82;73;
76661;PMS5003;65579;45.534;6.212;2023-01-26T02:37:44;83;76;
76661;PMS5003;65579;45.534;6.212;2023-01-26T02:40:12;87;76;
76661;PMS5003;65579;45.534;6.212;2023-01-26T02:42:35;72;68;
76661;PMS5003;65579;45.534;6.212;2023-01-26T02:45:00;73;69;
76661;PMS5003;65579;45.534;6.212;2023-01-26T02:47:26;82;72;
76661;PMS5003;65579;45.534;6.212;2023-01-26T02:49:52;77;67;
76661;PMS5003;65579;45.534;6.212;2023-01-26T02:52:18;75;64;
76661;PMS5003;65579;45.534;6.212;2023-01-26T02:54:42;71;67;
76661;PMS5003;65579;45.534;6.212;2023-01-26T02:57:07;66;61;
76661;PMS5003;65579;45.534;6.212;2023-01-26T02:59:33;64;61;
76661;PMS5003;65579;45.534;6.212;2023-01-26T03:01:59;65;62;
76661;PMS5003;65579;45.534;6.212;2023-01-26T03:04:24;70;67;
76661;PMS5003;65579;45.534;6.212;2023-01-26T03:06:50;69;63;
76661;PMS5003;65579;45.534;6.212;2023-01-26T03:09:15;68;65;
76661;PMS5003;65579;45.534;6.212;2023-01-26T03:11:40;70;64;
76661;PMS5003;65579;45.534;6.212;2023-01-26T03:14:06;70;59;
76661;PMS5003;65579;45.534;6.212;2023-01-26T03:16:31;65;61;
76661;PMS5003;65579;45.534;6.212;2023-01-26T03:18:57;64;59;
76661;PMS5003;65579;45.534;6.212;2023-01-26T03:21:22;56;53;
76661;PMS5003;65579;45.534;6.212;2023-01-26T03:23:48;73;64;
76661;PMS5003;65579;45.534;6.212;2023-01-26T03:26:13;69;61;
76661;PMS5003;65579;45.534;6.212;2023-01-26T03:28:38;60;59;
76661;PMS5003;65579;45.534;6.212;2023-01-26T03:31:04;69;64;
76661;PMS5003;65579;45.534;6.212;2023-01-26T03:33:30;63;59;
76661;PMS5003;65579;45.534;6.212;2023-01-26T03:35:55;61;58;
76661;PMS5003;65579;45.534;6.212;2023-01-26T03:38:20;63;58;
76661;PMS5003;65579;45.534;6.212;2023-01-26T03:40:46;64;60;
76661;PMS5003;65579;45.534;6.212;2023-01-26T03:43:12;70;61;
76661;PMS5003;65579;45.534;6.212;2023-01-26T03:45:37;98;79;
76661;PMS5003;65579;45.534;6.212;2023-01-26T03:48:03;78;72;
76661;PMS5003;65579;45.534;6.212;2023-01-26T03:50:28;83;77;
76661;PMS5003;65579;45.534;6.212;2023-01-26T03:52:54;82;69;
76661;PMS5003;65579;45.534;6.212;2023-01-26T03:55:19;80;77;
76661;PMS5003;65579;45.534;6.212;2023-01-26T03:57:45;92;78;
76661;PMS5003;65579;45.534;6.212;2023-01-26T04:00:11;77;73;
76661;PMS5003;65579;45.534;6.212;2023-01-26T04:02:36;75;68;
76661;PMS5003;65579;45.534;6.212;2023-01-26T04:05:01;80;76;
76661;PMS5003;65579;45.534;6.212;2023-01-26T04:07:27;76;70;
76661;PMS5003;65579;45.534;6.212;2023-01-26T04:09:52;82;71;
76661;PMS5003;65579;45.534;6.212;2023-01-26T04:12:18;84;70;
76661;PMS5003;65579;45.534;6.212;2023-01-26T04:14:43;82;76;
76661;PMS5003;65579;45.534;6.212;2023-01-26T04:17:08;87;83;
76661;PMS5003;65579;45.534;6.212;2023-01-26T04:19:33;77;73;
76661;PMS5003;65579;45.534;6.212;2023-01-26T04:21:59;83;78;
76661;PMS5003;65579;45.534;6.212;2023-01-26T04:24:25;83;77;
76661;PMS5003;65579;45.534;6.212;2023-01-26T04:26:50;68;61;
76661;PMS5003;65579;45.534;6.212;2023-01-26T04:29:15;80;74;
76661;PMS5003;65579;45.534;6.212;2023-01-26T04:31:41;160;150;
76661;PMS5003;65579;45.534;6.212;2023-01-26T04:34:09;86;84;
76661;PMS5003;65579;45.534;6.212;2023-01-26T04:36:33;84;79;
76661;PMS5003;65579;45.534;6.212;2023-01-26T04:38:59;84;74;
76661;PMS5003;65579;45.534;6.212;2023-01-26T04:41:24;79;69;
76661;PMS5003;65579;45.534;6.212;2023-01-26T04:43:50;74;69;
76661;PMS5003;65579;45.534;6.212;2023-01-26T04:46:15;78;67;
76661;PMS5003;65579;45.534;6.212;2023-01-26T04:48:41;67;64;
76661;PMS5003;65579;45.534;6.212;2023-01-26T04:51:08;84;79;
76661;PMS5003;65579;45.534;6.212;2023-01-26T04:53:33;75;73;
76661;PMS5003;65579;45.534;6.212;2023-01-26T04:55:58;80;74;
76661;PMS5003;65579;45.534;6.212;2023-01-26T04:58:23;86;75;
76661;PMS5003;65579;45.534;6.212;2023-01-26T05:00:50;83;71;
76661;PMS5003;65579;45.534;6.212;2023-01-26T05:03:13;83;78;
76661;PMS5003;65579;45.534;6.212;2023-01-26T05:05:39;65;58;
76661;PMS5003;65579;45.534;6.212;2023-01-26T05:08:04;73;68;
76661;PMS5003;65579;45.534;6.212;2023-01-26T05:10:30;93;85;
76661;PMS5003;65579;45.534;6.212;2023-01-26T05:12:55;83;73;
76661;PMS5003;65579;45.534;6.212;2023-01-26T05:15:20;75;69;
76661;PMS5003;65579;45.534;6.212;2023-01-26T05:17:45;78;74;
76661;PMS5003;65579;45.534;6.212;2023-01-26T05:20:11;92;76;
76661;PMS5003;65579;45.534;6.212;2023-01-26T05:22:36;72;63;
76661;PMS5003;65579;45.534;6.212;2023-01-26T05:25:01;82;73;
76661;PMS5003;65579;45.534;6.212;2023-01-26T05:27:27;73;68;
76661;PMS5003;65579;45.534;6.212;2023-01-26T05:29:52;91;81;
76661;PMS5003;65579;45.534;6.212;2023-01-26T05:32:18;86;79;
76661;PMS5003;65579;45.534;6.212;2023-01-26T05:34:43;83;78;
76661;PMS5003;65579;45.534;6.212;2023-01-26T05:37:08;96;80;
76661;PMS5003;65579;45.534;6.212;2023-01-26T05:39:34;79;75;
76661;PMS5003;65579;45.534;6.212;2023-01-26T05:41:59;82;75;
76661;PMS5003;65579;45.534;6.212;2023-01-26T05:44:24;82;73;
76661;PMS5003;65579;45.534;6.212;2023-01-26T05:46:50;85;81;
76661;PMS5003;65579;45.534;6.212;2023-01-26T05:49:15;79;76;
76661;PMS5003;65579;45.534;6.212;2023-01-26T05:51:41;83;76;
76661;PMS5003;65579;45.534;6.212;2023-01-26T05:54:06;80;77;
76661;PMS5003;65579;45.534;6.212;2023-01-26T05:56:32;81;75;
76661;PMS5003;65579;45.534;6.212;2023-01-26T05:58:57;88;82;
76661;PMS5003;65579;45.534;6.212;2023-01-26T06:01:23;90;81;
76661;PMS5003;65579;45.534;6.212;2023-01-26T06:03:50;88;84;
76661;PMS5003;65579;45.534;6.212;2023-01-26T06:06:14;88;80;
76661;PMS5003;65579;45.534;6.212;2023-01-26T06:08:40;84;77;
76661;PMS5003;65579;45.534;6.212;2023-01-26T06:11:05;89;82;
76661;PMS5003;65579;45.534;6.212;2023-01-26T06:13:31;84;75;
76661;PMS5003;65579;45.534;6.212;2023-01-26T06:15:59;84;77;
76661;PMS5003;65579;45.534;6.212;2023-01-26T06:18:21;88;81;
76661;PMS5003;65579;45.534;6.212;2023-01-26T06:20:47;78;73;
76661;PMS5003;65579;45.534;6.212;2023-01-26T06:23:12;86;75;
76661;PMS5003;65579;45.534;6.212;2023-01-26T06:25:38;78;71;
76661;PMS5003;65579;45.534;6.212;2023-01-26T06:28:04;80;70;
76661;PMS5003;65579;45.534;6.212;2023-01-26T06:30:29;73;68;
76661;PMS5003;65579;45.534;6.212;2023-01-26T06:32:54;76;70;
76661;PMS5003;65579;45.534;6.212;2023-01-26T06:35:20;81;76;
76661;PMS5003;65579;45.534;6.212;2023-01-26T06:37:47;91;81;
76661;PMS5003;65579;45.534;6.212;2023-01-26T06:40:12;75;68;
76661;PMS5003;65579;45.534;6.212;2023-01-26T06:42:35;84;75;
76661;PMS5003;65579;45.534;6.212;2023-01-26T06:45:01;80;74;
76661;PMS5003;65579;45.534;6.212;2023-01-26T06:47:26;88;74;
76661;PMS5003;65579;45.534;6.212;2023-01-26T06:49:52;88;83;
76661;PMS5003;65579;45.534;6.212;2023-01-26T06:52:21;65;58;
76661;PMS5003;65579;45.534;6.212;2023-01-26T06:54:43;84;70;
76661;PMS5003;65579;45.534;6.212;2023-01-26T06:57:08;75;70;
76661;PMS5003;65579;45.534;6.212;2023-01-26T06:59:34;78;68;
76661;PMS5003;65579;45.534;6.212;2023-01-26T07:01:59;76;69;
76661;PMS5003;65579;45.534;6.212;2023-01-26T07:04:24;77;74;
76661;PMS5003;65579;45.534;6.212;2023-01-26T07:09:15;69;68;
76661;PMS5003;65579;45.534;6.212;2023-01-26T07:11:41;72;65;
76661;PMS5003;65579;45.534;6.212;2023-01-26T07:14:07;66;63;
76661;PMS5003;65579;45.534;6.212;2023-01-26T07:16:34;70;63;
76661;PMS5003;65579;45.534;6.212;2023-01-26T07:18:59;82;73;
76661;PMS5003;65579;45.534;6.212;2023-01-26T07:21:23;73;66;
76661;PMS5003;65579;45.534;6.212;2023-01-26T07:28:39;77;73;
76661;PMS5003;65579;45.534;6.212;2023-01-26T07:33:37;85;80;
76661;PMS5003;65579;45.534;6.212;2023-01-26T07:36:00;70;60;
76661;PMS5003;65579;45.534;6.212;2023-01-26T07:38:21;67;60;
76661;PMS5003;65579;45.534;6.212;2023-01-26T07:40:46;68;59;
76661;PMS5003;65579;45.534;6.212;2023-01-26T07:43:11;55;54;
76661;PMS5003;65579;45.534;6.212;2023-01-26T07:45:36;55;48;
76661;PMS5003;65579;45.534;6.212;2023-01-26T07:48:02;69;64;
76661;PMS5003;65579;45.534;6.212;2023-01-26T07:50:27;60;58;
76661;PMS5003;65579;45.534;6.212;2023-01-26T07:52:53;66;63;
76661;PMS5003;65579;45.534;6.212;2023-01-26T07:55:18;61;53;
76661;PMS5003;65579;45.534;6.212;2023-01-26T07:57:44;59;52;
76661;PMS5003;65579;45.534;6.212;2023-01-26T08:00:09;115;111;
76661;PMS5003;65579;45.534;6.212;2023-01-26T08:02:35;79;75;
76661;PMS5003;65579;45.534;6.212;2023-01-26T08:05:00;65;63;
76661;PMS5003;65579;45.534;6.212;2023-01-26T08:07:26;65;59;
76661;PMS5003;65579;45.534;6.212;2023-01-26T08:09:51;72;63;
76661;PMS5003;65579;45.534;6.212;2023-01-26T08:12:17;79;77;
76661;PMS5003;65579;45.534;6.212;2023-01-26T08:14:41;83;75;
76661;PMS5003;65579;45.534;6.212;2023-01-26T08:17:07;79;70;
76661;PMS5003;65579;45.534;6.212;2023-01-26T08:19:32;76;67;
76661;PMS5003;65579;45.534;6.212;2023-01-26T08:21:57;75;71;
76661;PMS5003;65579;45.534;6.212;2023-01-26T08:24:23;69;64;
76661;PMS5003;65579;45.534;6.212;2023-01-26T08:26:48;71;65;
76661;PMS5003;65579;45.534;6.212;2023-01-26T08:29:15;63;62;
76661;PMS5003;65579;45.534;6.212;2023-01-26T08:31:39;77;67;
76661;PMS5003;65579;45.534;6.212;2023-01-26T08:34:05;74;69;
76661;PMS5003;65579;45.534;6.212;2023-01-26T08:36:30;71;68;
76661;PMS5003;65579;45.534;6.212;2023-01-26T08:38:55;74;67;
76661;PMS5003;65579;45.534;6.212;2023-01-26T08:41:20;76;67;
76661;PMS5003;65579;45.534;6.212;2023-01-26T08:43:46;62;55;
76661;PMS5003;65579;45.534;6.212;2023-01-26T08:46:11;67;63;
76661;PMS5003;65579;45.534;6.212;2023-01-26T08:48:37;77;70;
76661;PMS5003;65579;45.534;6.212;2023-01-26T08:51:03;76;67;
76661;PMS5003;65579;45.534;6.212;2023-01-26T08:53:29;77;71;
76661;PMS5003;65579;45.534;6.212;2023-01-26T08:55:53;81;77;
76661;PMS5003;65579;45.534;6.212;2023-01-26T08:58:19;94;89;
76661;PMS5003;65579;45.534;6.212;2023-01-26T09:00:44;99;89;
76661;PMS5003;65579;45.534;6.212;2023-01-26T09:03:10;105;90;
76661;PMS5003;65579;45.534;6.212;2023-01-26T09:05:37;90;82;
76661;PMS5003;65579;45.534;6.212;2023-01-26T09:08:01;93;88;
76661;PMS5003;65579;45.534;6.212;2023-01-26T09:10:29;88;84;
76661;PMS5003;65579;45.534;6.212;2023-01-26T09:12:52;87;80;
76661;PMS5003;65579;45.534;6.212;2023-01-26T09:15:18;90;79;
76661;PMS5003;65579;45.534;6.212;2023-01-26T09:17:47;74;69;
76661;PMS5003;65579;45.534;6.212;2023-01-26T09:20:12;67;61;
76661;PMS5003;65579;45.534;6.212;2023-01-26T09:22:34;80;73;
76661;PMS5003;65579;45.534;6.212;2023-01-26T09:25:00;78;71;
76661;PMS5003;65579;45.534;6.212;2023-01-26T09:27:29;71;67;
76661;PMS5003;65579;45.534;6.212;2023-01-26T09:29:51;69;60;
76661;PMS5003;65579;45.534;6.212;2023-01-26T09:32:16;75;68;
76661;PMS5003;65579;45.534;6.212;2023-01-26T09:34:41;70;59;
76661;PMS5003;65579;45.534;6.212;2023-01-26T09:37:06;68;66;
76661;PMS5003;65579;45.534;6.212;2023-01-26T09:39:32;61;58;
76661;PMS5003;65579;45.534;6.212;2023-01-26T09:42:03;61;58;
76661;PMS5003;65579;45.534;6.212;2023-01-26T09:44:24;60;57;
76661;PMS5003;65579;45.534;6.212;2023-01-26T09:46:53;60;56;
76661;PMS5003;65579;45.534;6.212;2023-01-26T09:49:15;62;57;
76661;PMS5003;65579;45.534;6.212;2023-01-26T09:51:40;57;51;
76661;PMS5003;65579;45.534;6.212;2023-01-26T09:54:11;61;58;
76661;PMS5003;65579;45.534;6.212;2023-01-26T09:56:31;57;47;
76661;PMS5003;65579;45.534;6.212;2023-01-26T09:58:59;41;40;
76661;PMS5003;65579;45.534;6.212;2023-01-26T10:01:24;62;54;
76661;PMS5003;65579;45.534;6.212;2023-01-26T10:03:59;50;48;
76661;PMS5003;65579;45.534;6.212;2023-01-26T10:06:14;47;44;
76661;PMS5003;65579;45.534;6.212;2023-01-26T10:08:40;53;49;
76661;PMS5003;65579;45.534;6.212;2023-01-26T10:11:06;46;43;
76661;PMS5003;65579;45.534;6.212;2023-01-26T10:13:29;54;46;
76661;PMS5003;65579;45.534;6.212;2023-01-26T10:15:56;51;43;
76661;PMS5003;65579;45.534;6.212;2023-01-26T10:18:21;49;44;
76661;PMS5003;65579;45.534;6.212;2023-01-26T10:20:47;57;51;
76661;PMS5003;65579;45.534;6.212;2023-01-26T10:23:12;54;49;
76661;PMS5003;65579;45.534;6.212;2023-01-26T10:25:37;50;45;
76661;PMS5003;65579;45.534;6.212;2023-01-26T10:30:27;44;42;
76661;PMS5003;65579;45.534;6.212;2023-01-26T10:32:53;38;35;
76661;PMS5003;65579;45.534;6.212;2023-01-26T10:35:19;42;40;
76661;PMS5003;65579;45.534;6.212;2023-01-26T10:37:44;43;42;
76661;PMS5003;65579;45.534;6.212;2023-01-26T10:40:10;39;37;
76661;PMS5003;65579;45.534;6.212;2023-01-26T10:42:36;41;37;
76661;PMS5003;65579;45.534;6.212;2023-01-26T10:45:03;46;42;
76661;PMS5003;65579;45.534;6.212;2023-01-26T10:47:30;47;45;
76661;PMS5003;65579;45.534;6.212;2023-01-26T10:49:52;45;41;
76661;PMS5003;65579;45.534;6.212;2023-01-26T10:52:18;52;45;
76661;PMS5003;65579;45.534;6.212;2023-01-26T10:54:43;42;37;
76661;PMS5003;65579;45.534;6.212;2023-01-26T10:57:13;34;31;
76661;PMS5003;65579;45.534;6.212;2023-01-26T10:59:33;52;45;
76661;PMS5003;65579;45.534;6.212;2023-01-26T11:01:59;45;39;
76661;PMS5003;65579;45.534;6.212;2023-01-26T11:04:24;49;46;
76661;PMS5003;65579;45.534;6.212;2023-01-26T11:06:49;50;45;
76661;PMS5003;65579;45.534;6.212;2023-01-26T11:09:16;43;38;
76661;PMS5003;65579;45.534;6.212;2023-01-26T11:11:40;56;51;
76661;PMS5003;65579;45.534;6.212;2023-01-26T11:14:09;53;49;
76661;PMS5003;65579;45.534;6.212;2023-01-26T11:16:31;50;47;
76661;PMS5003;65579;45.534;6.212;2023-01-26T11:18:58;47;46;
76661;PMS5003;65579;45.534;6.212;2023-01-26T11:21:26;52;45;
76661;PMS5003;65579;45.534;6.212;2023-01-26T11:23:51;44;44;
76661;PMS5003;65579;45.534;6.212;2023-01-26T11:28:42;59;48;
76661;PMS5003;65579;45.534;6.212;2023-01-26T11:31:08;46;44;
76661;PMS5003;65579;45.534;6.212;2023-01-26T11:33:32;57;49;
76661;PMS5003;65579;45.534;6.212;2023-01-26T11:35:59;59;52;
76661;PMS5003;65579;45.534;6.212;2023-01-26T11:38:25;66;53;
76661;PMS5003;65579;45.534;6.212;2023-01-26T11:40:49;57;56;
76661;PMS5003;65579;45.534;6.212;2023-01-26T11:45:40;51;47;
76661;PMS5003;65579;45.534;6.212;2023-01-26T11:48:07;45;42;
76661;PMS5003;65579;45.534;6.212;2023-01-26T11:50:31;49;40;
76661;PMS5003;65579;45.534;6.212;2023-01-26T11:52:57;41;38;
76661;PMS5003;65579;45.534;6.212;2023-01-26T11:55:22;46;45;
76661;PMS5003;65579;45.534;6.212;2023-01-26T11:57:46;43;39;
76661;PMS5003;65579;45.534;6.212;2023-01-26T12:00:12;51;47;
76661;PMS5003;65579;45.534;6.212;2023-01-26T12:02:35;46;45;
76661;PMS5003;65579;45.534;6.212;2023-01-26T12:05:01;45;39;
76661;PMS5003;65579;45.534;6.212;2023-01-26T12:07:27;45;42;
76661;PMS5003;65579;45.534;6.212;2023-01-26T12:09:50;38;37;
76661;PMS5003;65579;45.534;6.212;2023-01-26T12:12:16;49;47;
76661;PMS5003;65579;45.534;6.212;2023-01-26T12:14:43;52;47;
76661;PMS5003;65579;45.534;6.212;2023-01-26T12:17:22;41;34;
76661;PMS5003;65579;45.534;6.212;2023-01-26T12:19:35;45;44;
76661;PMS5003;65579;45.534;6.212;2023-01-26T12:24:23;49;46;
76661;PMS5003;65579;45.534;6.212;2023-01-26T12:26:49;49;44;
76661;PMS5003;65579;45.534;6.212;2023-01-26T12:29:15;49;43;
76661;PMS5003;65579;45.534;6.212;2023-01-26T12:31:42;54;47;
76661;PMS5003;65579;45.534;6.212;2023-01-26T12:34:07;58;56;
76661;PMS5003;65579;45.534;6.212;2023-01-26T12:36:38;42;38;
76661;PMS5003;65579;45.534;6.212;2023-01-26T12:39:00;41;41;
76661;PMS5003;65579;45.534;6.212;2023-01-26T12:43:52;43;41;
76661;PMS5003;65579;45.534;6.212;2023-01-26T12:46:12;47;44;
76661;PMS5003;65579;45.534;6.212;2023-01-26T12:48:41;49;46;
76661;PMS5003;65579;45.534;6.212;2023-01-26T12:51:04;36;35;
76661;PMS5003;65579;45.534;6.212;2023-01-26T12:53:29;37;36;
76661;PMS5003;65579;45.534;6.212;2023-01-26T12:55:55;45;42;
76661;PMS5003;65579;45.534;6.212;2023-01-26T12:58:20;34;31;
76661;PMS5003;65579;45.534;6.212;2023-01-26T13:03:13;39;39;
76661;PMS5003;65579;45.534;6.212;2023-01-26T13:05:36;37;36;
76661;PMS5003;65579;45.534;6.212;2023-01-26T13:10:28;57;49;
76661;PMS5003;65579;45.534;6.212;2023-01-26T13:12:54;44;40;
76661;PMS5003;65579;45.534;6.212;2023-01-26T13:15:18;56;51;
76661;PMS5003;65579;45.534;6.212;2023-01-26T13:17:47;57;52;
76661;PMS5003;65579;45.534;6.212;2023-01-26T13:22:37;55;48;
76661;PMS5003;65579;45.534;6.212;2023-01-26T13:25:11;57;53;
76661;PMS5003;65579;45.534;6.212;2023-01-26T13:27:28;53;53;
76661;PMS5003;65579;45.534;6.212;2023-01-26T13:29:52;57;54;
76661;PMS5003;65579;45.534;6.212;2023-01-26T13:34:44;52;49;
76661;PMS5003;65579;45.534;6.212;2023-01-26T13:37:09;47;46;
76661;PMS5003;65579;45.534;6.212;2023-01-26T13:39:34;49;46;
76661;PMS5003;65579;45.534;6.212;2023-01-26T13:41:59;55;50;
76661;PMS5003;65579;45.534;6.212;2023-01-26T13:44:29;54;51;
76661;PMS5003;65579;45.534;6.212;2023-01-26T13:46:51;49;46;
76661;PMS5003;65579;45.534;6.212;2023-01-26T13:49:22;52;47;
76661;PMS5003;65579;45.534;6.212;2023-01-26T13:51:42;43;41;
76661;PMS5003;65579;45.534;6.212;2023-01-26T13:54:10;40;39;
76661;PMS5003;65579;45.534;6.212;2023-01-26T13:56:33;33;31;
76661;PMS5003;65579;45.534;6.212;2023-01-26T13:59:03;38;34;
76661;PMS5003;65579;45.534;6.212;2023-01-26T14:01:24;37;33;
76661;PMS5003;65579;45.534;6.212;2023-01-26T14:06:16;53;51;
76661;PMS5003;65579;45.534;6.212;2023-01-26T14:08:42;56;49;
76661;PMS5003;65579;45.534;6.212;2023-01-26T14:15:58;47;42;
76661;PMS5003;65579;45.534;6.212;2023-01-26T14:18:23;44;42;
76661;PMS5003;65579;45.534;6.212;2023-01-26T14:20:49;42;40;
76661;PMS5003;65579;45.534;6.212;2023-01-26T14:23:15;52;49;
76661;PMS5003;65579;45.534;6.212;2023-01-26T14:25:40;49;45;
76661;PMS5003;65579;45.534;6.212;2023-01-26T14:28:05;52;44;
76661;PMS5003;65579;45.534;6.212;2023-01-26T14:30:32;37;32;
76661;PMS5003;65579;45.534;6.212;2023-01-26T14:32:57;56;52;
76661;PMS5003;65579;45.534;6.212;2023-01-26T14:35:22;45;42;
76661;PMS5003;65579;45.534;6.212;2023-01-26T14:37:47;50;46;
76661;PMS5003;65579;45.534;6.212;2023-01-26T14:40:19;53;46;
76661;PMS5003;65579;45.534;6.212;2023-01-26T14:42:38;48;42;
76661;PMS5003;65579;45.534;6.212;2023-01-26T14:45:03;45;41;
76661;PMS5003;65579;45.534;6.212;2023-01-26T14:47:28;54;48;
76661;PMS5003;65579;45.534;6.212;2023-01-26T14:49:54;53;46;
76661;PMS5003;65579;45.534;6.212;2023-01-26T14:52:21;53;49;
76661;PMS5003;65579;45.534;6.212;2023-01-26T14:57:15;41;40;
76661;PMS5003;65579;45.534;6.212;2023-01-26T15:04:33;59;50;
76661;PMS5003;65579;45.534;6.212;2023-01-26T15:06:52;50;44;
76661;PMS5003;65579;45.534;6.212;2023-01-26T15:09:20;50;46;
76661;PMS5003;65579;45.534;6.212;2023-01-26T15:11:50;55;49;
76661;PMS5003;65579;45.534;6.212;2023-01-26T15:16:49;60;57;
76661;PMS5003;65579;45.534;6.212;2023-01-26T15:19:00;59;53;
76661;PMS5003;65579;45.534;6.212;2023-01-26T15:23:51;66;61;
76661;PMS5003;65579;45.534;6.212;2023-01-26T15:26:23;83;71;
76661;PMS5003;65579;45.534;6.212;2023-01-26T15:28:48;61;59;
76661;PMS5003;65579;45.534;6.212;2023-01-26T15:31:07;52;52;
76661;PMS5003;65579;45.534;6.212;2023-01-26T15:36:00;55;53;
76661;PMS5003;65579;45.534;6.212;2023-01-26T15:38:23;60;55;
76661;PMS5003;65579;45.534;6.212;2023-01-26T15:40:50;154;141;
76661;PMS5003;65579;45.534;6.212;2023-01-26T15:43:17;79;75;
76661;PMS5003;65579;45.534;6.212;2023-01-26T15:45:47;68;61;
76661;PMS5003;65579;45.534;6.212;2023-01-26T15:48:06;58;53;
76661;PMS5003;65579;45.534;6.212;2023-01-26T15:50:30;56;52;
76661;PMS5003;65579;45.534;6.212;2023-01-26T15:52:56;64;60;
76661;PMS5003;65579;45.534;6.212;2023-01-26T15:55:24;71;70;
76661;PMS5003;65579;45.534;6.212;2023-01-26T15:57:47;82;77;
76661;PMS5003;65579;45.534;6.212;2023-01-26T16:00:13;65;57;
76661;PMS5003;65579;45.534;6.212;2023-01-26T16:02:38;59;57;
76661;PMS5003;65579;45.534;6.212;2023-01-26T16:05:03;70;63;
76661;PMS5003;65579;45.534;6.212;2023-01-26T16:07:29;72;64;
76661;PMS5003;65579;45.534;6.212;2023-01-26T16:12:19;70;63;
76661;PMS5003;65579;45.534;6.212;2023-01-26T16:14:44;62;59;
76661;PMS5003;65579;45.534;6.212;2023-01-26T16:17:12;59;56;
76661;PMS5003;65579;45.534;6.212;2023-01-26T16:22:00;54;47;
76661;PMS5003;65579;45.534;6.212;2023-01-26T16:24:25;57;48;
76661;PMS5003;65579;45.534;6.212;2023-01-26T16:26:51;50;48;
76661;PMS5003;65579;45.534;6.212;2023-01-26T16:29:18;54;50;
76661;PMS5003;65579;45.534;6.212;2023-01-26T16:31:42;47;42;
76661;PMS5003;65579;45.534;6.212;2023-01-26T16:34:08;58;52;
76661;PMS5003;65579;45.534;6.212;2023-01-26T16:36:33;46;43;
76661;PMS5003;65579;45.534;6.212;2023-01-26T16:38:59;52;48;
76661;PMS5003;65579;45.534;6.212;2023-01-26T16:41:27;53;46;
76661;PMS5003;65579;45.534;6.212;2023-01-26T16:43:50;51;46;
76661;PMS5003;65579;45.534;6.212;2023-01-26T16:46:17;48;44;
76661;PMS5003;65579;45.534;6.212;2023-01-26T16:48:41;47;42;
76661;PMS5003;65579;45.534;6.212;2023-01-26T16:51:12;38;38;
76661;PMS5003;65579;45.534;6.212;2023-01-26T16:53:32;45;42;
76661;PMS5003;65579;45.534;6.212;2023-01-26T16:55:57;45;38;
76661;PMS5003;65579;45.534;6.212;2023-01-26T16:58:24;45;39;
76661;PMS5003;65579;45.534;6.212;2023-01-26T17:00:48;43;38;